This is the latest recevied weather packets stored in our database for station/object HB9BTL-13. If no packets are shown the sender has not sent any weather packets the latest 10 day(s).
| Time | Temp. | Humidity | Pressure | Rain* | Wind** | Luminosity | Snow |
|---|---|---|---|---|---|---|---|
| 1777846027 | 15° C | 98% | 1016 hPa | - | - | - | - |
| 1777845122 | 15.56° C | 97% | 1015.7 hPa | - | - | - | - |
| 1777844217 | 15° C | 99% | 1015.7 hPa | - | - | - | - |
| 1777843312 | 15° C | 97% | 1015.7 hPa | - | - | - | - |
| 1777842406 | 15.56° C | 92% | 1015.4 hPa | - | - | - | - |
| 1777841501 | 15.56° C | 93% | 1015.7 hPa | - | - | - | - |
| 1777840595 | 15° C | 96% | 1015.9 hPa | - | - | - | - |
| 1777839690 | 15° C | 96% | 1015.9 hPa | - | - | - | - |
| 1777838784 | 15° C | 91% | 1015.9 hPa | - | - | - | - |
| 1777837879 | 15° C | 91% | 1015.8 hPa | - | - | - | - |
| 1777836973 | 15° C | 91% | 1015.7 hPa | - | - | - | - |
| 1777836068 | 15° C | 90% | 1015.5 hPa | - | - | - | - |
| 1777835163 | 15° C | 93% | 1015.3 hPa | - | - | - | - |
| 1777834257 | 15.56° C | 90% | 1015.3 hPa | - | - | - | - |
| 1777833352 | 15.56° C | 92% | 1015.2 hPa | - | - | - | - |
| 1777832447 | 16.11° C | 92% | 1015.1 hPa | - | - | - | - |
| 1777831542 | 16.11° C | 93% | 1015 hPa | - | - | - | - |
| 1777830636 | 16.11° C | 96% | 1015 hPa | - | - | - | - |
| 1777829731 | 16.67° C | 94% | 1014.8 hPa | - | - | - | - |
| 1777828825 | 16.67° C | 93% | 1014.7 hPa | - | - | - | - |
| 1777827920 | 17.22° C | 91% | 1014.6 hPa | - | - | - | - |
| 1777827015 | 17.22° C | 92% | 1015 hPa | - | - | - | - |
| 1777826109 | 16.67° C | 91% | 1015.1 hPa | - | - | - | - |
| 1777825204 | 17.22° C | 89% | 1015.6 hPa | - | - | - | - |
| 1777824298 | 17.78° C | 74% | 1015.9 hPa | - | - | - | - |
* Rain since midnight (hover to see other rain measurements)
** Current wind speed in m/s (hover to see current wind gust speed)